Time;durP1;ratioP1;P1;durP2;ratioP2;P2;SDS_P1;SDS_P2;PMS_P1;PMS_P2;Temp;Humidity;BMP_temperature;BMP_pressure;BME280_temperature;BME280_humidity;BME280_pressure;Samples;Min_cycle;Max_cycle;Signal;HPM_P1;HPM_P2
2022/05/01 00:00:32;;;;;;;1999.90;999.90;;;10.30;99.90;;;;;;4934483;29;20936;-74
2022/05/01 00:02:57;;;;;;;1999.90;999.90;;;10.40;99.90;;;;;;4934529;28;20310;-73
2022/05/01 00:05:23;;;;;;;1999.90;999.90;;;10.40;99.90;;;;;;4934265;28;20183;-74
2022/05/01 00:07:49;;;;;;;1999.90;999.90;;;10.40;99.90;;;;;;4934419;28;20547;-74
2022/05/01 00:10:15;;;;;;;1999.90;999.90;;;10.40;99.90;;;;;;4934370;29;20195;-74
2022/05/01 00:12:42;;;;;;;1999.90;999.90;;;10.50;99.90;;;;;;4934391;28;20415;-74
2022/05/01 00:15:08;;;;;;;1999.90;999.90;;;10.30;99.90;;;;;;4933995;29;20419;-73
2022/05/01 00:17:33;;;;;;;1999.90;999.90;;;10.20;99.90;;;;;;4934359;28;20504;-73
2022/05/01 00:19:59;;;;;;;1999.90;999.90;;;10.10;99.90;;;;;;4934217;28;20511;-74
2022/05/01 00:22:25;;;;;;;1999.90;999.90;;;10.00;99.90;;;;;;4934164;28;20733;-74
2022/05/01 00:24:50;;;;;;;1999.90;999.90;;;9.90;99.90;;;;;;4933417;28;20172;-74
2022/05/01 00:27:17;;;;;;;1999.90;999.90;;;9.80;99.90;;;;;;4934240;28;20537;-74
2022/05/01 00:29:42;;;;;;;1999.90;999.90;;;9.80;99.90;;;;;;4933976;29;20215;-74
2022/05/01 00:32:08;;;;;;;1999.90;999.90;;;9.70;99.90;;;;;;4934135;28;20838;-73
2022/05/01 00:37:19;;;;;;;1999.90;999.90;;;9.60;99.90;;;;;;4934027;29;20846;-73
2022/05/01 00:39:45;;;;;;;1999.90;999.90;;;9.60;99.90;;;;;;4933811;29;20443;-74
2022/05/01 00:42:11;;;;;;;1999.90;999.90;;;9.60;99.90;;;;;;4933947;28;20816;-73
2022/05/01 00:44:36;;;;;;;1999.90;999.90;;;9.40;99.90;;;;;;4933624;28;20659;-74
2022/05/01 00:47:02;;;;;;;1999.90;999.90;;;9.40;99.90;;;;;;4933893;28;20197;-74
2022/05/01 00:49:28;;;;;;;1999.90;999.90;;;9.40;99.90;;;;;;4933886;28;20171;-74
2022/05/01 00:52:00;;;;;;;1999.90;999.90;;;9.40;99.90;;;;;;4933750;29;20655;-74
2022/05/01 00:54:30;;;;;;;1999.90;999.90;;;9.30;99.90;;;;;;4933609;28;20399;-74
2022/05/01 00:57:04;;;;;;;1999.90;999.90;;;9.20;99.90;;;;;;4933634;29;20405;-73
2022/05/01 00:59:33;;;;;;;1999.90;999.90;;;9.20;99.90;;;;;;4933630;29;20410;-74
2022/05/01 01:01:59;;;;;;;1999.90;999.90;;;9.10;99.90;;;;;;4933538;28;20859;-73
2022/05/01 01:04:25;;;;;;;1999.90;999.90;;;8.90;99.90;;;;;;4933357;29;20438;-74
2022/05/01 01:06:51;;;;;;;1999.90;999.90;;;9.00;99.90;;;;;;4933571;28;20168;-73
2022/05/01 01:09:17;;;;;;;1999.90;999.90;;;8.90;99.90;;;;;;4933500;28;20885;-74
2022/05/01 01:11:44;;;;;;;1999.90;999.90;;;8.90;99.90;;;;;;4933456;28;20779;-73
2022/05/01 01:14:10;;;;;;;1999.90;999.90;;;8.80;99.90;;;;;;4933211;28;20429;-73
2022/05/01 01:16:37;;;;;;;1999.90;999.90;;;8.90;99.90;;;;;;4933529;28;20826;-74
2022/05/01 01:19:04;;;;;;;1999.90;999.90;;;8.90;99.90;;;;;;4933647;28;20411;-74
2022/05/01 01:21:30;;;;;;;1999.90;999.90;;;9.00;99.90;;;;;;4933259;28;20437;-74
2022/05/01 01:23:57;;;;;;;1999.90;999.90;;;8.90;99.90;;;;;;4933005;29;20828;-73
2022/05/01 01:26:23;;;;;;;1999.90;999.90;;;8.90;99.90;;;;;;4932776;29;20228;-74
2022/05/01 01:28:50;;;;;;;1999.90;999.90;;;9.00;99.90;;;;;;4933278;28;20805;-74
2022/05/01 01:34:05;;;;;;;1999.90;999.90;;;8.90;99.90;;;;;;4933321;29;20472;-74
2022/05/01 01:36:35;;;;;;;1999.90;999.90;;;9.00;99.90;;;;;;4933073;28;20418;-74
2022/05/01 01:39:00;;;;;;;1999.90;999.90;;;8.90;99.90;;;;;;4933233;28;20447;-73
2022/05/01 01:41:30;;;;;;;1999.90;999.90;;;9.00;99.90;;;;;;4933002;28;20485;-74
2022/05/01 01:43:57;;;;;;;1999.90;999.90;;;9.00;99.90;;;;;;4932922;29;20228;-73
2022/05/01 01:46:23;;;;;;;1999.90;999.90;;;8.90;99.90;;;;;;4934523;29;20453;-74
2022/05/01 01:48:50;;;;;;;1999.90;999.90;;;9.00;99.90;;;;;;4935245;28;20407;-74
2022/05/01 01:51:17;;;;;;;1999.90;999.90;;;9.00;99.90;;;;;;4934770;29;20426;-74
2022/05/01 01:53:43;;;;;;;1999.90;999.90;;;8.80;99.90;;;;;;4935204;29;20912;-74
2022/05/01 01:56:10;;;;;;;1999.90;999.90;;;8.60;99.90;;;;;;4935114;28;20502;-74
2022/05/01 01:58:38;;;;;;;1999.90;999.90;;;8.50;99.90;;;;;;4934892;29;20413;-74
2022/05/01 02:01:05;;;;;;;1999.90;999.90;;;8.50;99.90;;;;;;5000394;28;20997;-74
2022/05/01 02:03:32;;;;;;;1999.90;999.90;;;8.50;99.90;;;;;;5000566;28;20455;-74
2022/05/01 02:05:58;;;;;;;1999.90;999.90;;;8.40;99.90;;;;;;4934417;29;20413;-74
2022/05/01 02:08:23;;;;;;;1999.90;999.90;;;8.40;99.90;;;;;;4935001;28;20411;-74
2022/05/01 02:10:49;;;;;;;1999.90;999.90;;;8.40;99.90;;;;;;4935573;28;20265;-74
2022/05/01 02:13:16;;;;;;;1999.90;999.90;;;8.40;99.90;;;;;;4935060;28;20170;-75
2022/05/01 02:15:42;;;;;;;1999.90;999.90;;;8.40;99.90;;;;;;4934542;29;20198;-74
2022/05/01 02:18:08;;;;;;;1999.90;999.90;;;8.40;99.90;;;;;;5000800;28;20502;-74
2022/05/01 02:23:24;;;;;;;1999.90;999.90;;;8.40;99.90;;;;;;4935527;29;20214;-74
2022/05/01 02:25:50;;;;;;;1999.90;999.90;;;8.30;99.90;;;;;;4934835;29;20468;-74
2022/05/01 02:28:16;;;;;;;1999.90;999.90;;;8.40;99.90;;;;;;5000526;28;20911;-74
2022/05/01 02:30:42;;;;;;;1999.90;999.90;;;8.50;99.90;;;;;;4934952;28;20511;-74
2022/05/01 02:33:08;;;;;;;1999.90;999.90;;;8.50;99.90;;;;;;5000796;28;20787;-74
2022/05/01 02:35:37;;;;;;;1999.90;999.90;;;8.50;99.90;;;;;;4934813;28;20413;-74
2022/05/01 02:38:04;;;;;;;1999.90;999.90;;;8.50;99.90;;;;;;4935469;28;20449;-74
2022/05/01 02:40:30;;;;;;;1999.90;999.90;;;8.60;99.90;;;;;;5000377;28;20465;-74
2022/05/01 02:42:58;;;;;;;1999.90;999.90;;;8.60;99.90;;;;;;4935559;29;20465;-74
2022/05/01 02:45:27;;;;;;;1999.90;999.90;;;8.60;99.90;;;;;;4934130;29;20450;-74
2022/05/01 02:47:53;;;;;;;1999.90;999.90;;;8.60;99.90;;;;;;4934911;28;20411;-74
2022/05/01 02:50:19;;;;;;;1999.90;999.90;;;8.60;99.90;;;;;;4934649;28;20435;-74
2022/05/01 02:52:45;;;;;;;1999.90;999.90;;;8.60;99.90;;;;;;4935138;28;20488;-74
2022/05/01 02:55:11;;;;;;;1999.90;999.90;;;8.70;99.90;;;;;;4934051;29;20172;-74
2022/05/01 02:57:37;;;;;;;1999.90;999.90;;;8.70;99.90;;;;;;5000110;28;20429;-74
2022/05/01 03:00:06;;;;;;;1999.90;999.90;;;8.70;99.90;;;;;;5000301;28;20292;-74
2022/05/01 03:02:33;;;;;;;1999.90;999.90;;;8.60;99.90;;;;;;4934717;28;20506;-74
2022/05/01 03:04:58;;;;;;;1999.90;999.90;;;8.60;99.90;;;;;;4934531;29;20423;-74
2022/05/01 03:07:24;;;;;;;1999.90;999.90;;;8.70;99.90;;;;;;4934413;28;20409;-74
2022/05/01 03:09:50;;;;;;;1999.90;999.90;;;8.70;99.90;;;;;;4934468;29;20217;-74
2022/05/01 03:12:18;;;;;;;1999.90;999.90;;;8.70;99.90;;;;;;4937838;28;20562;-74
2022/05/01 03:14:44;;;;;;;1999.90;999.90;;;8.70;99.90;;;;;;4937737;29;20758;-74
2022/05/01 03:17:10;;;;;;;1999.90;999.90;;;8.70;99.90;;;;;;4937814;28;20461;-74
2022/05/01 03:22:21;;;;;;;1999.90;999.90;;;8.60;99.90;;;;;;4937506;29;20259;-74
2022/05/01 03:24:46;;;;;;;1999.90;999.90;;;8.60;99.90;;;;;;4937280;29;20502;-74
2022/05/01 03:27:12;;;;;;;1999.90;999.90;;;8.70;99.90;;;;;;5003935;28;20955;-74
2022/05/01 03:29:38;;;;;;;1999.90;999.90;;;8.80;99.90;;;;;;4937630;28;20198;-74
2022/05/01 03:32:07;;;;;;;1999.90;999.90;;;8.80;99.90;;;;;;4937761;29;20263;-74
2022/05/01 03:34:39;;;;;;;1999.90;999.90;;;8.90;99.90;;;;;;5003897;28;20418;-74
2022/05/01 03:37:09;;;;;;;1999.90;999.90;;;9.00;99.90;;;;;;4938060;28;20893;-74
2022/05/01 03:39:35;;;;;;;1999.90;999.90;;;8.90;99.90;;;;;;5003672;28;20473;-74
2022/05/01 03:42:02;;;;;;;1999.90;999.90;;;8.80;99.90;;;;;;4934802;28;20746;-73
2022/05/01 03:44:27;;;;;;;1999.90;999.90;;;8.70;99.90;;;;;;4934514;29;20749;-73
2022/05/01 03:46:53;;;;;;;1999.90;999.90;;;8.70;99.90;;;;;;4934795;29;20418;-74
2022/05/01 03:49:18;;;;;;;1999.90;999.90;;;8.60;99.90;;;;;;4934684;28;20176;-73
2022/05/01 03:51:46;;;;;;;1999.90;999.90;;;8.70;99.90;;;;;;4934743;28;20182;-74
2022/05/01 03:54:12;;;;;;;1999.90;999.90;;;8.70;99.90;;;;;;4934294;29;20181;-74
2022/05/01 03:56:38;;;;;;;1999.90;999.90;;;8.90;99.90;;;;;;5000634;28;20436;-74
2022/05/01 03:59:04;;;;;;;1999.90;999.90;;;8.90;99.90;;;;;;4934625;28;20265;-74
2022/05/01 04:01:30;;;;;;;1999.90;999.90;;;9.00;99.90;;;;;;4934457;29;20195;-74
2022/05/01 04:03:56;;;;;;;1999.90;999.90;;;9.00;99.90;;;;;;4934423;28;20967;-75
2022/05/01 04:06:22;;;;;;;1999.90;999.90;;;9.10;99.90;;;;;;4934274;28;20464;-74
2022/05/01 04:08:48;;;;;;;1999.90;999.90;;;9.20;99.90;;;;;;4934438;29;20421;-74
2022/05/01 04:11:14;;;;;;;1999.90;999.90;;;9.20;99.90;;;;;;4934358;28;20499;-74
2022/05/01 04:13:40;;;;;;;1999.90;999.90;;;9.20;99.90;;;;;;4934400;28;20175;-74
2022/05/01 04:16:06;;;;;;;1999.90;999.90;;;9.20;99.90;;;;;;4934015;29;20902;-74
2022/05/01 04:18:31;;;;;;;1999.90;999.90;;;9.30;99.90;;;;;;5000090;28;20431;-74
2022/05/01 04:20:58;;;;;;;1999.90;999.90;;;9.20;99.90;;;;;;4933880;28;20677;-74
2022/05/01 04:23:24;;;;;;;1999.90;999.90;;;9.10;99.90;;;;;;4934173;28;20599;-73
2022/05/01 04:25:50;;;;;;;1999.90;999.90;;;9.10;99.90;;;;;;4933988;28;20417;-74
2022/05/01 04:28:16;;;;;;;1999.90;999.90;;;9.00;99.90;;;;;;4934163;29;20181;-73
2022/05/01 04:30:42;;;;;;;1999.90;999.90;;;9.00;99.90;;;;;;4934062;28;20465;-74
2022/05/01 04:33:15;;;;;;;1999.90;999.90;;;9.00;99.90;;;;;;4933971;28;20861;-74
2022/05/01 04:35:45;;;;;;;1999.90;999.90;;;9.10;99.90;;;;;;4933855;28;20262;-74
2022/05/01 04:38:13;;;;;;;1999.90;999.90;;;9.20;99.90;;;;;;4934056;28;20414;-74
2022/05/01 04:40:42;;;;;;;1999.90;999.90;;;9.20;99.90;;;;;;4933873;28;20889;-74
2022/05/01 04:43:12;;;;;;;1999.90;999.90;;;9.40;99.90;;;;;;4933949;29;20450;-75
2022/05/01 04:45:40;;;;;;;1999.90;999.90;;;9.40;99.90;;;;;;4933645;29;20421;-74
2022/05/01 04:48:07;;;;;;;1999.90;999.90;;;9.50;99.90;;;;;;4933852;29;20438;-74
2022/05/01 04:50:33;;;;;;;1999.90;999.90;;;9.50;99.90;;;;;;4933761;28;20433;-74
2022/05/01 04:53:02;;;;;;;1999.90;999.90;;;9.60;99.90;;;;;;4933774;29;20849;-74
2022/05/01 04:55:31;;;;;;;1999.90;999.90;;;9.80;99.90;;;;;;4933637;28;20419;-74
2022/05/01 04:57:57;;;;;;;1999.90;999.90;;;9.70;99.90;;;;;;4933766;28;20415;-74
2022/05/01 05:00:23;;;;;;;1999.90;999.90;;;9.90;99.90;;;;;;4933657;28;20504;-74
2022/05/01 05:02:53;;;;;;;1999.90;999.90;;;10.00;99.90;;;;;;4933531;28;20454;-74
2022/05/01 05:05:20;;;;;;;1999.90;999.90;;;10.10;99.90;;;;;;4933370;28;20414;-74
2022/05/01 05:07:46;;;;;;;1999.90;999.90;;;10.10;99.90;;;;;;4933730;28;20502;-75
2022/05/01 05:10:12;;;;;;;1999.90;999.90;;;10.10;99.90;;;;;;4933529;29;20525;-74
2022/05/01 05:12:42;;;;;;;1999.90;999.90;;;10.00;99.90;;;;;;4933567;29;20833;-74
2022/05/01 05:15:09;;;;;;;1999.90;999.90;;;10.10;99.90;;;;;;4933131;29;20777;-74
2022/05/01 05:17:36;;;;;;;1999.90;999.90;;;10.00;99.90;;;;;;4933503;29;20415;-73
2022/05/01 05:20:04;;;;;;;1999.90;999.90;;;10.00;99.90;;;;;;4933369;29;20439;-74
2022/05/01 05:22:30;;;;;;;1999.90;999.90;;;10.00;99.90;;;;;;4933261;29;20450;-74
2022/05/01 05:24:56;;;;;;;1999.90;999.90;;;9.90;99.90;;;;;;4933187;28;20493;-74
2022/05/01 05:27:25;;;;;;;1999.90;999.90;;;9.90;99.90;;;;;;4933298;29;20905;-74
2022/05/01 05:29:54;;;;;;;1999.90;999.90;;;9.90;99.90;;;;;;4933110;29;20236;-74
2022/05/01 05:32:20;;;;;;;1999.90;999.90;;;10.00;99.90;;;;;;4933023;28;20449;-74
2022/05/01 05:34:46;;;;;;;1999.90;999.90;;;10.10;99.90;;;;;;4932308;29;20417;-74
2022/05/01 05:37:12;;;;;;;1999.90;999.90;;;10.20;99.90;;;;;;4933183;28;20423;-74
2022/05/01 05:39:38;;;;;;;1999.90;999.90;;;10.20;99.90;;;;;;4932854;29;21025;-74
2022/05/01 05:42:04;;;;;;;1999.90;999.90;;;10.30;99.90;;;;;;4933045;28;20765;-74
2022/05/01 05:44:30;;;;;;;1999.90;999.90;;;10.40;99.90;;;;;;4932828;28;20466;-74
2022/05/01 05:46:56;;;;;;;1999.90;999.90;;;10.40;99.90;;;;;;4932984;29;20892;-74
2022/05/01 05:49:21;;;;;;;1999.90;999.90;;;10.50;99.90;;;;;;4932953;28;20651;-74
2022/05/01 05:51:47;;;;;;;1999.90;999.90;;;10.50;99.90;;;;;;4932959;28;20210;-74
2022/05/01 05:54:12;;;;;;;1999.90;999.90;;;10.60;99.90;;;;;;4932577;28;20187;-74
2022/05/01 05:56:38;;;;;;;1999.90;999.90;;;10.70;99.90;;;;;;4932916;28;20212;-74
2022/05/01 05:59:04;;;;;;;1999.90;999.90;;;10.80;99.90;;;;;;4932824;28;20177;-73
2022/05/01 06:01:29;;;;;;;1999.90;999.90;;;10.90;99.90;;;;;;4932686;28;20199;-74
2022/05/01 06:03:55;;;;;;;1999.90;999.90;;;10.90;99.90;;;;;;4932708;28;20575;-72
2022/05/01 06:06:20;;;;;;;1999.90;999.90;;;11.00;99.90;;;;;;4997978;28;20207;-74
2022/05/01 06:08:46;;;;;;;1999.90;999.90;;;11.10;99.90;;;;;;4932679;28;20654;-73
2022/05/01 06:11:12;;;;;;;1999.90;999.90;;;11.20;99.90;;;;;;4932551;29;20196;-74
2022/05/01 06:13:37;;;;;;;1999.90;999.90;;;11.30;99.90;;;;;;4932639;29;20176;-74
2022/05/01 06:16:03;;;;;;;1999.90;999.90;;;11.40;99.90;;;;;;4932366;28;20203;-74
2022/05/01 06:18:29;;;;;;;1999.90;999.90;;;11.40;99.90;;;;;;4932640;28;20545;-74
2022/05/01 06:20:56;;;;;;;1999.90;999.90;;;11.30;99.90;;;;;;4932517;28;20439;-74
2022/05/01 06:23:22;;;;;;;1999.90;999.90;;;11.20;99.90;;;;;;4932450;28;20450;-74
2022/05/01 06:25:48;;;;;;;1999.90;999.90;;;11.30;99.90;;;;;;4932229;28;20410;-74
2022/05/01 06:28:15;;;;;;;1999.90;999.90;;;11.30;99.90;;;;;;4932330;29;20168;-74
2022/05/01 06:30:46;;;;;;;1999.90;999.90;;;11.20;99.90;;;;;;4932222;29;20429;-74
2022/05/01 06:33:14;;;;;;;1999.90;999.90;;;11.20;99.90;;;;;;4932489;28;20499;-74
2022/05/01 06:35:41;;;;;;;1999.90;999.90;;;11.40;99.90;;;;;;4932087;28;20428;-74
2022/05/01 06:38:10;;;;;;;1999.90;999.90;;;11.40;99.90;;;;;;4932203;29;20403;-74
2022/05/01 06:40:38;;;;;;;1999.90;999.90;;;11.50;99.90;;;;;;4931926;28;20451;-74
2022/05/01 06:43:04;;;;;;;1999.90;999.90;;;11.50;99.90;;;;;;4997691;28;20505;-74
2022/05/01 06:45:30;;;;;;;1999.90;999.90;;;11.50;99.90;;;;;;4931662;29;20403;-74
2022/05/01 06:47:55;;;;;;;1999.90;999.90;;;11.60;99.90;;;;;;4932136;28;20414;-74
2022/05/01 06:50:21;;;;;;;1999.90;999.90;;;11.70;99.90;;;;;;4932119;28;20231;-74
2022/05/01 06:52:46;;;;;;;1999.90;999.90;;;11.80;99.90;;;;;;4997813;28;20821;-74
2022/05/01 06:55:14;;;;;;;1999.90;999.90;;;11.90;99.90;;;;;;4931708;28;20171;-74
2022/05/01 06:57:39;;;;;;;1999.90;999.90;;;11.90;99.90;;;;;;4932036;29;20183;-73
2022/05/01 07:00:06;;;;;;;1999.90;999.90;;;12.00;99.90;;;;;;4931924;28;20458;-74
2022/05/01 07:02:32;;;;;;;1999.90;999.90;;;12.00;99.90;;;;;;4931913;29;20253;-73
2022/05/01 07:04:57;;;;;;;1999.90;999.90;;;12.10;99.90;;;;;;4931736;28;20417;-74
2022/05/01 07:07:23;;;;;;;1999.90;999.90;;;12.40;99.90;;;;;;4931996;28;20181;-74
2022/05/01 07:09:50;;;;;;;1999.90;999.90;;;12.60;99.90;;;;;;4997633;28;20230;-74
2022/05/01 07:12:16;;;;;;;1999.90;999.90;;;12.70;99.90;;;;;;4931845;29;20170;-74
2022/05/01 07:14:43;;;;;;;1999.90;999.90;;;12.60;99.90;;;;;;4931630;28;20413;-74
2022/05/01 07:17:09;;;;;;;1999.90;999.90;;;12.70;99.90;;;;;;4931820;29;20222;-74
2022/05/01 07:19:35;;;;;;;1999.90;999.90;;;12.80;99.90;;;;;;4931758;28;20439;-74
2022/05/01 07:22:01;;;;;;;1999.90;999.90;;;12.70;99.90;;;;;;4931772;28;20886;-74
2022/05/01 07:24:26;;;;;;;1999.90;999.90;;;12.80;99.90;;;;;;4931446;28;20460;-74
2022/05/01 07:26:52;;;;;;;1999.90;999.90;;;12.90;99.90;;;;;;4931816;28;20172;-73
2022/05/01 07:29:17;;;;;;;1999.90;999.90;;;12.80;99.90;;;;;;4931523;28;20190;-74
2022/05/01 07:31:43;;;;;;;1999.90;999.90;;;12.90;99.90;;;;;;4997375;28;20177;-74
2022/05/01 07:34:11;;;;;;;1999.90;999.90;;;13.00;99.90;;;;;;4931431;28;20176;-74
2022/05/01 07:36:38;;;;;;;1999.90;999.90;;;13.20;99.90;;;;;;4931676;28;20698;-74
2022/05/01 07:39:03;;;;;;;1999.90;999.90;;;13.20;99.90;;;;;;4931556;28;20445;-74
2022/05/01 07:41:29;;;;;;;1999.90;999.90;;;13.40;99.90;;;;;;4931404;28;20689;-74
2022/05/01 07:43:58;;;;;;;1999.90;999.90;;;13.60;99.90;;;;;;4931301;28;20264;-73
2022/05/01 07:46:23;;;;;;;1999.90;999.90;;;13.60;99.90;;;;;;4931441;28;20172;-74
2022/05/01 07:48:49;;;;;;;1999.90;999.90;;;13.70;99.90;;;;;;4931330;28;20779;-74
2022/05/01 07:51:18;;;;;;;1999.90;999.90;;;14.00;99.90;;;;;;4931416;28;20192;-75
2022/05/01 07:53:44;;;;;;;1999.90;999.90;;;14.30;99.90;;;;;;4931323;28;20207;-74
2022/05/01 07:56:10;;;;;;;1999.90;999.90;;;14.60;99.90;;;;;;4931651;28;20919;-74
2022/05/01 07:58:35;;;;;;;1999.90;999.90;;;14.50;99.90;;;;;;4934571;28;20509;-74
2022/05/01 08:01:03;;;;;;;1999.90;999.90;;;14.60;99.90;;;;;;4934501;28;20206;-74
2022/05/01 08:06:26;;;;;;;1999.90;999.90;;;14.30;99.90;;;;;;4966785;28;20417;-75
2022/05/01 08:08:51;;;;;;;1999.90;999.90;;;14.30;99.90;;;;;;5000071;28;20474;-74
2022/05/01 08:11:17;;;;;;;1999.90;999.90;;;14.50;99.90;;;;;;4934425;28;20246;-74
2022/05/01 08:13:43;;;;;;;1999.90;999.90;;;14.60;99.90;;;;;;4934436;28;20178;-74
2022/05/01 08:16:08;;;;;;;1999.90;999.90;;;14.40;99.90;;;;;;5000107;28;20795;-74
2022/05/01 08:21:19;;;;;;;1999.90;999.90;;;14.30;99.90;;;;;;4934212;29;20225;-74
2022/05/01 08:23:44;;;;;;;1999.90;999.90;;;14.10;99.90;;;;;;4934117;29;20466;-74
2022/05/01 08:26:11;;;;;;;1999.90;999.90;;;14.20;99.90;;;;;;4933923;28;20423;-74
2022/05/01 08:28:38;;;;;;;1999.90;999.90;;;14.20;99.90;;;;;;4934207;29;20176;-74
2022/05/01 08:31:05;;;;;;;1999.90;999.90;;;14.20;99.90;;;;;;4934078;28;20805;-74
2022/05/01 08:33:32;;;;;;;1999.90;999.90;;;14.30;99.90;;;;;;4934132;28;20425;-74
2022/05/01 08:35:58;;;;;;;1999.90;999.90;;;14.50;99.90;;;;;;4933802;29;20502;-74
2022/05/01 08:38:24;;;;;;;1999.90;999.90;;;14.70;99.90;;;;;;4934043;28;20416;-74
2022/05/01 08:40:51;;;;;;;1999.90;999.90;;;15.10;99.90;;;;;;4933853;28;20478;-74
2022/05/01 08:43:21;;;;;;;1999.90;999.90;;;15.10;99.90;;;;;;4933846;29;20211;-74
2022/05/01 08:45:52;;;;;;;1999.90;999.90;;;15.30;99.90;;;;;;4933696;28;20412;-74
2022/05/01 08:48:34;;;;;;;1999.90;999.90;;;15.20;99.90;;;;;;4933869;29;20414;-74
2022/05/01 08:51:03;;;;;;;1999.90;999.90;;;15.10;99.90;;;;;;4933903;28;20494;-74
2022/05/01 08:53:29;;;;;;;1999.90;999.90;;;14.90;99.90;;;;;;4933807;29;20412;-74
2022/05/01 08:55:56;;;;;;;1999.90;999.90;;;15.00;99.90;;;;;;4933492;29;20466;-74
2022/05/01 08:58:26;;;;;;;1999.90;999.90;;;15.30;99.90;;;;;;4933788;29;20490;-74
2022/05/01 09:00:52;;;;;;;1999.90;999.90;;;15.40;99.90;;;;;;4933678;29;20429;-74
2022/05/01 09:03:18;;;;;;;1999.90;999.90;;;15.50;99.90;;;;;;4933629;29;20460;-74
2022/05/01 09:05:44;;;;;;;1999.90;999.90;;;15.70;99.90;;;;;;4934564;28;20408;-75
2022/05/01 09:08:10;;;;;;;1999.90;999.90;;;15.90;99.90;;;;;;4935256;28;20228;-75
2022/05/01 09:10:39;;;;;;;1999.90;999.90;;;16.20;99.90;;;;;;4936004;29;20585;-75
2022/05/01 09:13:06;;;;;;;1999.90;999.90;;;16.40;99.90;;;;;;4935723;28;20491;-76
2022/05/01 09:15:41;;;;;;;1999.90;999.90;;;16.50;99.90;;;;;;4935355;29;20415;-75
2022/05/01 09:18:09;;;;;;;1999.90;999.90;;;16.10;99.90;;;;;;4936338;29;20398;-74
2022/05/01 09:20:39;;;;;;;1999.90;999.90;;;16.00;99.90;;;;;;4937263;28;20859;-74
2022/05/01 09:23:07;;;;;;;1999.90;999.90;;;16.10;99.90;;;;;;4935947;29;20471;-76
2022/05/01 09:25:33;;;;;;;1999.90;999.90;;;16.10;99.90;;;;;;4935519;28;20918;-75
2022/05/01 09:28:17;;;;;;;1999.90;999.90;;;15.90;99.90;;;;;;4937266;28;20410;-75
2022/05/01 09:30:45;;;;;;;1999.90;999.90;;;16.20;99.90;;;;;;4937281;28;20517;-76
2022/05/01 09:33:20;;;;;;;1999.90;999.90;;;16.40;99.90;;;;;;4935790;28;20422;-73
2022/05/01 09:35:47;;;;;;;1999.90;999.90;;;16.70;99.90;;;;;;5000812;28;20426;-75
2022/05/01 09:38:25;;;;;;;1999.90;999.90;;;16.90;99.90;;;;;;5001261;28;20434;-75
2022/05/01 09:40:58;;;;;;;1999.90;999.90;;;16.70;99.90;;;;;;4935805;29;20451;-76
2022/05/01 09:43:43;;;;;;;1999.90;999.90;;;16.80;99.90;;;;;;4935130;29;20454;-75
2022/05/01 09:46:20;;;;;;;1999.90;999.90;;;16.70;99.90;;;;;;5000616;28;20425;-75
2022/05/01 09:49:10;;;;;;;1999.90;999.90;;;16.60;99.90;;;;;;4934990;28;20995;-74
2022/05/01 09:51:46;;;;;;;1999.90;999.90;;;16.20;99.90;;;;;;4934640;29;20500;-74
2022/05/01 09:54:21;;;;;;;1999.90;999.90;;;16.40;99.90;;;;;;4932568;29;20413;-74
2022/05/01 09:56:52;;;;;;;1999.90;999.90;;;16.80;99.90;;;;;;4932867;28;20415;-75
2022/05/01 09:59:20;;;;;;;1999.90;999.90;;;17.10;99.90;;;;;;4932802;28;20414;-74
2022/05/01 10:02:02;;;;;;;1999.90;999.90;;;17.10;99.90;;;;;;4932882;28;20517;-74
2022/05/01 10:04:32;;;;;;;1999.90;999.90;;;16.70;99.90;;;;;;4998097;28;20473;-74
2022/05/01 10:06:59;;;;;;;1999.90;999.90;;;16.60;99.90;;;;;;4932616;28;20422;-74
2022/05/01 10:09:29;;;;;;;1999.90;999.90;;;16.80;99.90;;;;;;4932548;28;20454;-74
2022/05/01 10:11:58;;;;;;;1999.90;999.90;;;16.90;99.90;;;;;;4932752;28;20827;-75
2022/05/01 10:14:24;;;;;;;1999.90;999.90;;;16.70;99.90;;;;;;4932342;28;20920;-75
2022/05/01 10:16:51;;;;;;;1999.90;999.90;;;16.80;99.90;;;;;;4932478;29;20413;-75
2022/05/01 10:19:18;;;;;;;1999.90;999.90;;;17.10;99.90;;;;;;4931976;28;20900;-74
2022/05/01 10:21:57;;;;;;;1999.90;999.90;;;17.10;99.90;;;;;;4932463;29;20417;-75
2022/05/01 10:24:23;;;;;;;1999.90;999.90;;;16.90;99.90;;;;;;4932093;29;20465;-75
2022/05/01 10:26:54;;;;;;;1999.90;999.90;;;16.70;99.90;;;;;;4932560;28;20804;-74
2022/05/01 10:33:00;;;;;;;1999.90;999.90;;;16.90;99.90;;;;;;4932346;29;20765;-75
2022/05/01 10:35:45;;;;;;;1999.90;999.90;;;16.90;98.80;;;;;;4932067;29;20413;-75
2022/05/01 10:38:41;;;;;;;1999.90;999.90;;;16.90;98.00;;;;;;4932183;29;20408;-75
2022/05/01 10:41:10;;;;;;;1999.90;999.90;;;17.10;98.90;;;;;;4932176;28;20842;-75
2022/05/01 10:43:37;;;;;;;1999.90;999.90;;;17.50;95.00;;;;;;4932126;28;20812;-75
2022/05/01 10:46:05;;;;;;;1999.90;999.90;;;17.80;96.20;;;;;;4932000;28;20401;-75
2022/05/01 10:48:38;;;;;;;1999.90;999.90;;;18.20;94.70;;;;;;4932014;29;20575;-75
2022/05/01 10:51:34;;;;;;;1999.90;999.90;;;18.40;92.80;;;;;;4932075;29;20441;-74
2022/05/01 10:54:17;;;;;;;1999.90;999.90;;;18.90;86.00;;;;;;4931820;29;20403;-75
2022/05/01 10:56:51;;;;;;;1999.90;999.90;;;19.10;78.70;;;;;;4932567;28;20404;-74
2022/05/01 10:59:29;;;;;;;1999.90;999.90;;;19.30;80.00;;;;;;4931988;28;20449;-75
2022/05/01 11:01:56;;;;;;;1999.90;999.90;;;19.60;76.80;;;;;;4932065;28;20821;-75
2022/05/01 11:04:22;;;;;;;1999.90;999.90;;;19.40;77.30;;;;;;4931741;28;20486;-75
2022/05/01 11:06:55;;;;;;;1999.90;999.90;;;18.70;75.60;;;;;;4932835;29;20772;-75
2022/05/01 11:09:25;;;;;;;1999.90;999.90;;;18.40;76.50;;;;;;4999942;28;20784;-75
2022/05/01 11:11:57;;;;;;;1999.90;999.90;;;18.20;74.50;;;;;;5000489;28;20423;-75
2022/05/01 11:14:39;;;;;;;1999.90;999.90;;;18.50;78.90;;;;;;4934959;28;20785;-75
2022/05/01 11:17:05;;;;;;;1999.90;999.90;;;19.00;78.40;;;;;;4934922;28;20781;-75
2022/05/01 11:19:44;;;;;;;1999.90;999.90;;;19.20;70.20;;;;;;4934975;28;20410;-75
2022/05/01 11:22:12;;;;;;;1999.90;999.90;;;19.70;73.30;;;;;;4934358;29;20499;-75
2022/05/01 11:24:45;;;;;;;1999.90;999.90;;;20.10;64.90;;;;;;4934684;29;20416;-75
2022/05/01 11:27:11;;;;;;;1999.90;999.90;;;20.60;66.20;;;;;;4934560;28;20396;-75
2022/05/01 11:29:37;;;;;;;1999.90;999.90;;;20.80;57.10;;;;;;4933648;28;20950;-76
2022/05/01 11:32:19;;;;;;;1999.90;999.90;;;21.00;61.70;;;;;;4935781;28;20169;-75
2022/05/01 11:34:53;;;;;;;1999.90;999.90;;;20.80;55.20;;;;;;4936610;28;20381;-76
2022/05/01 11:37:21;;;;;;;1999.90;999.90;;;20.80;53.40;;;;;;5003147;28;20428;-75
2022/05/01 11:39:46;;;;;;;1999.90;999.90;;;20.90;52.60;;;;;;4937061;29;20543;-76
2022/05/01 11:42:24;;;;;;;1999.90;999.90;;;20.70;48.80;;;;;;4936889;29;20434;-75
2022/05/01 11:44:57;;;;;;;1999.90;999.90;;;20.50;45.90;;;;;;5003057;28;20184;-75
2022/05/01 11:47:25;;;;;;;1999.90;999.90;;;20.60;48.60;;;;;;4937066;29;20431;-75
2022/05/01 11:49:51;;;;;;;1999.90;999.90;;;20.70;50.30;;;;;;4935024;28;20526;-74
2022/05/01 11:52:18;;;;;;;1999.90;999.90;;;20.90;45.30;;;;;;4934620;28;20396;-74
2022/05/01 11:55:07;;;;;;;1999.90;999.90;;;21.00;44.80;;;;;;4934418;29;20983;-74
2022/05/01 12:03:08;;;;;;;1999.90;999.90;;;21.00;44.70;;;;;;4934826;29;20467;-74
2022/05/01 12:05:47;;;;;;;1999.90;999.90;;;20.90;42.10;;;;;;4934276;28;20435;-74
2022/05/01 12:08:14;;;;;;;1999.90;999.90;;;20.70;42.90;;;;;;4934453;28;20392;-74
2022/05/01 12:10:44;;;;;;;1999.90;999.90;;;20.40;40.70;;;;;;4934423;28;20432;-74
2022/05/01 12:13:22;;;;;;;1999.90;999.90;;;20.70;44.60;;;;;;4934469;28;20413;-74
2022/05/01 12:15:49;;;;;;;1999.90;999.90;;;21.10;44.70;;;;;;5000111;28;20430;-74
2022/05/01 12:18:16;;;;;;;1999.90;999.90;;;21.10;41.30;;;;;;4934339;28;20902;-74
2022/05/01 12:20:42;;;;;;;1999.90;999.90;;;21.40;41.60;;;;;;4934266;28;20868;-74
2022/05/01 12:23:15;;;;;;;1999.90;999.90;;;21.50;38.70;;;;;;4934232;28;20490;-74
2022/05/01 12:25:41;;;;;;;1999.90;999.90;;;21.40;40.80;;;;;;4934119;29;20404;-74
2022/05/01 12:28:10;;;;;;;1999.90;999.90;;;21.70;40.00;;;;;;4934194;28;20391;-74
2022/05/01 12:30:36;;;;;;;1999.90;999.90;;;21.80;38.70;;;;;;4933984;29;20437;-74
2022/05/01 12:33:03;;;;;;;1999.90;999.90;;;21.80;38.70;;;;;;4934127;29;20397;-74